Time;durP1;ratioP1;P1;durP2;ratioP2;P2;SDS_P1;SDS_P2;PMS_P1;PMS_P2;Temp;Humidity;BMP_temperature;BMP_pressure;BME280_temperature;BME280_humidity;BME280_pressure;Samples;Min_cycle;Max_cycle;Signal;HPM_P1;HPM_P2
2022/07/31 00:01:03;;;;;;;5.37;4.87;;;38.00;49.30;;;;;;5064760;28;20911;-67
2022/07/31 00:03:33;;;;;;;5.67;5.27;;;38.00;48.40;;;;;;5067520;28;20451;-68
2022/07/31 00:06:04;;;;;;;5.53;5.23;;;37.90;48.10;;;;;;5064841;28;20448;-66
2022/07/31 00:08:37;;;;;;;5.50;5.20;;;37.80;49.20;;;;;;5064594;28;21037;-67
2022/07/31 00:11:10;;;;;;;5.60;5.30;;;37.80;49.60;;;;;;5065576;28;20474;-67
2022/07/31 00:13:41;;;;;;;4.83;4.53;;;37.80;48.70;;;;;;5067877;28;20479;-68
2022/07/31 00:16:28;;;;;;;6.00;5.67;;;37.80;48.80;;;;;;5082911;28;20454;-67
2022/07/31 00:18:59;;;;;;;5.40;5.10;;;37.60;48.80;;;;;;5064863;28;20452;-67
2022/07/31 00:21:30;;;;;;;5.60;5.20;;;37.60;49.00;;;;;;5064141;28;20443;-67
2022/07/31 00:24:00;;;;;;;5.47;5.07;;;37.50;48.00;;;;;;5065091;28;20452;-67
2022/07/31 00:26:31;;;;;;;5.53;5.13;;;37.50;47.90;;;;;;5082243;28;20459;-67
2022/07/31 00:29:02;;;;;;;6.10;5.70;;;37.40;48.60;;;;;;5063565;28;20466;-67
2022/07/31 00:31:34;;;;;;;5.57;5.27;;;37.40;47.60;;;;;;5063742;28;20444;-67
2022/07/31 00:34:07;;;;;;;5.27;4.90;;;37.30;48.30;;;;;;5070415;28;20501;-67
2022/07/31 00:36:38;;;;;;;5.40;5.00;;;37.20;48.30;;;;;;5076284;28;20463;-67
2022/07/31 00:39:09;;;;;;;5.93;5.53;;;37.30;48.10;;;;;;5058419;28;20455;-67
2022/07/31 00:41:41;;;;;;;5.27;4.90;;;37.20;47.20;;;;;;5062068;28;20462;-67
2022/07/31 00:44:13;;;;;;;5.60;5.20;;;37.20;47.60;;;;;;5059291;28;20445;-67
2022/07/31 00:46:48;;;;;;;5.27;4.87;;;37.10;47.90;;;;;;5068192;28;20520;-68
2022/07/31 00:49:19;;;;;;;4.90;4.60;;;37.10;48.10;;;;;;5084860;28;20457;-68
2022/07/31 00:51:50;;;;;;;4.93;4.63;;;37.20;46.10;;;;;;5072349;28;20455;-68
2022/07/31 00:54:21;;;;;;;4.43;4.13;;;37.10;46.80;;;;;;5073402;28;20512;-68
2022/07/31 00:56:52;;;;;;;5.50;5.10;;;37.00;46.90;;;;;;5074574;28;20459;-67
2022/07/31 00:59:23;;;;;;;4.97;4.67;;;37.00;46.80;;;;;;5060013;28;20458;-68
2022/07/31 01:01:58;;;;;;;5.50;5.10;;;36.90;46.70;;;;;;5059640;28;20451;-68
2022/07/31 01:04:28;;;;;;;5.67;5.17;;;36.90;46.90;;;;;;5064901;28;20470;-67
2022/07/31 01:07:00;;;;;;;5.30;4.90;;;36.90;47.10;;;;;;5066072;28;20513;-67
2022/07/31 01:09:31;;;;;;;5.33;5.03;;;36.80;47.00;;;;;;5064870;28;20449;-67
2022/07/31 01:12:07;;;;;;;5.37;4.97;;;36.70;48.00;;;;;;5078856;28;20458;-70
2022/07/31 01:14:42;;;;;;;5.13;4.83;;;36.70;47.50;;;;;;5068639;28;20541;-69
2022/07/31 01:17:17;;;;;;;5.83;5.43;;;36.50;47.50;;;;;;5074983;28;20438;-68
2022/07/31 01:19:49;;;;;;;5.63;5.23;;;36.50;48.60;;;;;;5057113;28;20471;-68
2022/07/31 01:22:44;;;;;;;5.57;5.17;;;36.50;47.90;;;;;;5059544;28;20460;-68
2022/07/31 01:25:25;;;;;;;5.47;5.07;;;36.40;48.00;;;;;;5073645;28;20569;-68
2022/07/31 01:28:06;;;;;;;6.10;5.60;;;36.40;48.80;;;;;;5063850;28;21267;-68
2022/07/31 01:30:46;;;;;;;5.37;4.97;;;36.30;47.70;;;;;;5065732;28;20824;-68
2022/07/31 01:33:35;;;;;;;4.87;4.57;;;36.30;47.70;;;;;;5068040;28;20593;-69
2022/07/31 01:36:12;;;;;;;5.40;5.00;;;36.10;48.10;;;;;;5060693;28;20482;-70
2022/07/31 01:38:48;;;;;;;4.90;4.50;;;36.00;48.20;;;;;;5056227;28;20458;-69
2022/07/31 01:41:23;;;;;;;5.83;5.17;;;35.90;48.60;;;;;;5051523;28;20470;-68
2022/07/31 01:43:56;;;;;;;5.30;4.83;;;35.80;48.50;;;;;;5073801;28;20461;-68
2022/07/31 01:46:29;;;;;;;5.40;5.00;;;35.80;48.50;;;;;;5078539;28;20958;-67
2022/07/31 01:49:11;;;;;;;5.27;4.90;;;35.80;49.60;;;;;;5063818;28;20450;-67
2022/07/31 01:51:44;;;;;;;5.43;5.03;;;35.80;48.70;;;;;;5062628;28;20515;-68
2022/07/31 01:54:17;;;;;;;5.13;4.83;;;35.80;49.00;;;;;;5067687;28;20432;-68
2022/07/31 01:56:49;;;;;;;5.40;5.00;;;35.70;50.30;;;;;;5073962;28;20443;-68
2022/07/31 01:59:22;;;;;;;5.17;4.83;;;35.60;49.00;;;;;;5083380;28;20448;-66
2022/07/31 02:01:56;;;;;;;5.37;4.97;;;35.50;49.50;;;;;;5070727;28;20483;-67
2022/07/31 02:04:29;;;;;;;6.10;5.67;;;35.50;50.40;;;;;;5069310;28;20454;-67
2022/07/31 02:07:02;;;;;;;5.40;5.00;;;35.40;49.90;;;;;;5066384;28;20443;-68
2022/07/31 02:09:35;;;;;;;4.73;4.43;;;35.30;50.80;;;;;;5072685;28;20431;-70
2022/07/31 02:12:07;;;;;;;5.10;4.70;;;35.30;51.00;;;;;;5063148;28;20444;-68
2022/07/31 02:14:40;;;;;;;5.10;4.70;;;35.30;51.90;;;;;;5070241;28;20451;-68
2022/07/31 02:17:14;;;;;;;5.17;4.87;;;35.20;52.60;;;;;;5057631;28;20460;-68
2022/07/31 02:19:53;;;;;;;5.43;5.10;;;35.10;51.90;;;;;;5063380;28;20523;-68
2022/07/31 02:22:29;;;;;;;4.93;4.53;;;35.10;52.50;;;;;;5062185;28;20490;-69
2022/07/31 02:25:00;;;;;;;5.30;4.90;;;35.00;52.20;;;;;;5063143;28;20456;-67
2022/07/31 02:27:32;;;;;;;5.30;4.90;;;34.90;53.00;;;;;;5062788;28;20462;-68
2022/07/31 02:30:23;;;;;;;5.30;4.90;;;34.80;53.10;;;;;;5061879;28;20432;-68
2022/07/31 02:32:56;;;;;;;5.70;4.80;;;34.70;53.70;;;;;;5061705;28;20457;-68
2022/07/31 02:35:27;;;;;;;6.27;5.77;;;34.60;53.10;;;;;;5071687;28;20486;-69
2022/07/31 02:37:58;;;;;;;6.70;4.40;;;34.50;52.80;;;;;;5061307;28;20463;-69
2022/07/31 02:40:30;;;;;;;5.13;4.73;;;34.40;53.10;;;;;;5065778;28;20452;-67
2022/07/31 02:43:01;;;;;;;4.97;4.67;;;34.30;53.30;;;;;;5056368;28;20441;-67
2022/07/31 02:45:36;;;;;;;5.30;4.90;;;34.20;53.70;;;;;;5073461;28;20902;-68
2022/07/31 02:48:09;;;;;;;4.63;4.33;;;34.10;52.90;;;;;;5081070;28;20461;-68
2022/07/31 02:50:40;;;;;;;5.00;4.60;;;34.00;53.10;;;;;;5081534;28;20461;-68
2022/07/31 02:53:11;;;;;;;4.33;4.00;;;33.80;53.90;;;;;;5075572;28;20459;-67
2022/07/31 02:55:44;;;;;;;4.33;4.03;;;33.70;54.00;;;;;;5062875;28;20487;-68
2022/07/31 02:58:15;;;;;;;4.93;4.57;;;33.60;53.90;;;;;;5053972;28;20982;-68
2022/07/31 03:00:46;;;;;;;4.93;4.57;;;33.60;54.30;;;;;;5064541;28;21852;-67
2022/07/31 03:03:18;;;;;;;5.00;4.60;;;33.50;54.40;;;;;;5063584;28;20455;-68
2022/07/31 03:05:49;;;;;;;4.70;4.40;;;33.50;54.40;;;;;;5072676;28;20461;-68
2022/07/31 03:08:20;;;;;;;5.20;4.80;;;33.40;54.30;;;;;;5063878;28;20454;-68
2022/07/31 03:10:51;;;;;;;4.73;4.43;;;33.30;55.10;;;;;;5062068;28;20463;-68
2022/07/31 03:13:25;;;;;;;5.00;4.60;;;33.20;55.60;;;;;;5062442;28;20463;-68
2022/07/31 03:15:56;;;;;;;5.00;4.60;;;33.10;55.20;;;;;;5062550;28;20486;-68
2022/07/31 03:18:29;;;;;;;4.10;3.80;;;33.00;56.00;;;;;;5080752;28;20461;-68
2022/07/31 03:21:00;;;;;;;4.40;4.10;;;32.80;55.40;;;;;;5074563;28;20462;-68
2022/07/31 03:23:35;;;;;;;4.93;4.53;;;32.80;55.40;;;;;;5059722;28;20462;-68
2022/07/31 03:26:06;;;;;;;4.37;4.07;;;32.80;55.50;;;;;;5053488;28;20464;-68
2022/07/31 03:28:37;;;;;;;4.80;4.50;;;32.70;56.90;;;;;;5063853;28;20789;-68
2022/07/31 03:31:09;;;;;;;4.23;3.93;;;32.50;57.00;;;;;;5070965;28;20442;-68
2022/07/31 03:33:41;;;;;;;4.83;4.53;;;32.30;58.70;;;;;;5063314;28;20476;-68
2022/07/31 03:36:12;;;;;;;4.57;4.27;;;32.00;60.30;;;;;;5073808;28;20491;-67
2022/07/31 03:38:43;;;;;;;5.20;4.80;;;31.80;61.20;;;;;;5065905;28;20458;-67
2022/07/31 03:41:19;;;;;;;4.90;4.40;;;31.50;62.20;;;;;;5061773;28;20580;-68
2022/07/31 03:43:51;;;;;;;4.57;4.27;;;31.30;66.30;;;;;;5065076;28;20446;-68
2022/07/31 03:46:24;;;;;;;4.13;3.87;;;31.10;67.90;;;;;;5067762;28;20446;-70
2022/07/31 03:48:57;;;;;;;4.40;4.10;;;30.90;63.60;;;;;;5076130;28;20461;-68
2022/07/31 03:51:28;;;;;;;3.97;3.70;;;30.80;63.60;;;;;;5070429;28;20451;-68
2022/07/31 03:53:59;;;;;;;4.63;4.23;;;30.70;64.10;;;;;;5066034;28;20455;-70
2022/07/31 03:56:30;;;;;;;4.60;4.30;;;30.70;64.20;;;;;;5080192;28;20491;-69
2022/07/31 03:59:01;;;;;;;5.10;4.70;;;30.60;65.90;;;;;;5065912;28;20485;-68
2022/07/31 04:01:33;;;;;;;5.00;4.60;;;30.50;65.10;;;;;;5065382;28;20593;-68
2022/07/31 04:04:28;;;;;;;4.87;4.50;;;30.40;67.20;;;;;;5067994;28;20488;-68
2022/07/31 04:06:59;;;;;;;4.10;3.80;;;30.10;68.30;;;;;;5047365;28;20526;-68
2022/07/31 04:09:29;;;;;;;4.97;4.57;;;30.00;69.60;;;;;;5061990;28;20468;-67
2022/07/31 04:12:00;;;;;;;4.60;4.20;;;29.80;70.60;;;;;;5068626;28;20451;-68
2022/07/31 04:14:34;;;;;;;4.73;4.33;;;29.70;69.60;;;;;;5065513;28;20441;-67
2022/07/31 04:17:05;;;;;;;3.60;3.30;;;29.50;71.00;;;;;;5077047;28;20490;-67
2022/07/31 04:19:38;;;;;;;5.40;5.00;;;29.40;74.20;;;;;;5065844;28;21230;-68
2022/07/31 04:22:08;;;;;;;4.27;3.97;;;29.30;73.40;;;;;;5083859;28;20459;-69
2022/07/31 04:24:39;;;;;;;4.10;3.80;;;29.40;70.70;;;;;;5065117;28;20463;-69
2022/07/31 04:27:10;;;;;;;4.53;4.23;;;29.40;68.90;;;;;;5065006;28;20540;-69
2022/07/31 04:29:42;;;;;;;5.00;4.60;;;29.50;69.50;;;;;;5067036;28;20448;-69
2022/07/31 04:32:16;;;;;;;4.60;4.30;;;29.50;71.00;;;;;;5065430;28;20958;-69
2022/07/31 04:34:49;;;;;;;4.67;4.37;;;29.50;70.90;;;;;;5064240;28;20474;-68
2022/07/31 04:37:20;;;;;;;4.63;4.23;;;29.50;71.30;;;;;;5062427;28;20502;-69
2022/07/31 04:39:51;;;;;;;4.30;4.00;;;29.30;72.90;;;;;;5065363;28;20477;-69
2022/07/31 04:42:21;;;;;;;4.43;4.13;;;29.10;76.00;;;;;;5064652;28;21052;-68
2022/07/31 04:44:52;;;;;;;4.10;3.70;;;28.80;76.30;;;;;;5062263;28;20519;-68
2022/07/31 04:47:23;;;;;;;4.17;3.87;;;28.70;78.70;;;;;;5066634;28;20550;-68
2022/07/31 04:49:55;;;;;;;4.40;4.10;;;28.40;80.20;;;;;;5064628;28;20634;-68
2022/07/31 04:52:28;;;;;;;4.80;4.50;;;28.30;83.20;;;;;;5069758;28;20464;-69
2022/07/31 04:54:59;;;;;;;4.70;4.40;;;28.20;85.80;;;;;;5048223;28;20492;-68
2022/07/31 04:57:30;;;;;;;5.30;4.27;;;28.00;85.90;;;;;;5062942;28;20493;-70
2022/07/31 05:00:00;;;;;;;4.40;4.00;;;27.90;84.70;;;;;;5064730;28;20780;-69
2022/07/31 05:02:31;;;;;;;4.00;3.70;;;27.90;86.20;;;;;;5062308;28;20454;-68
2022/07/31 05:05:04;;;;;;;4.07;3.80;;;27.90;79.20;;;;;;5067675;28;20474;-69
2022/07/31 05:07:34;;;;;;;4.17;3.77;;;27.90;76.70;;;;;;5066028;28;20467;-71
2022/07/31 05:10:06;;;;;;;4.03;3.73;;;28.00;76.90;;;;;;5062967;28;20599;-68
2022/07/31 05:12:37;;;;;;;4.40;4.10;;;28.00;76.90;;;;;;5063263;28;20468;-70
2022/07/31 05:15:09;;;;;;;4.83;4.50;;;28.00;78.00;;;;;;5062108;28;20463;-70
2022/07/31 05:17:39;;;;;;;4.23;3.90;;;28.00;78.90;;;;;;5061453;28;20549;-70
2022/07/31 05:20:13;;;;;;;4.07;3.77;;;27.90;80.00;;;;;;5063575;28;20456;-69
2022/07/31 05:22:43;;;;;;;4.50;4.10;;;27.70;81.00;;;;;;5061824;28;20931;-70
2022/07/31 05:25:14;;;;;;;4.83;4.43;;;27.60;84.30;;;;;;5067566;28;20958;-69
2022/07/31 05:27:45;;;;;;;4.37;3.97;;;27.40;83.60;;;;;;5083171;28;20473;-68
2022/07/31 05:30:18;;;;;;;4.33;4.03;;;27.30;85.70;;;;;;5065224;28;20455;-70
2022/07/31 05:32:59;;;;;;;4.23;3.83;;;27.30;84.00;;;;;;5069071;28;20469;-70
2022/07/31 05:35:34;;;;;;;4.40;4.00;;;27.30;84.00;;;;;;5063628;28;20478;-72
2022/07/31 05:38:06;;;;;;;3.73;3.43;;;27.30;83.30;;;;;;5053118;28;20556;-68
2022/07/31 05:40:40;;;;;;;3.60;3.30;;;27.20;83.90;;;;;;5059513;28;20498;-69
2022/07/31 05:43:11;;;;;;;3.93;3.63;;;27.10;82.70;;;;;;5060062;28;22011;-69
2022/07/31 05:45:42;;;;;;;3.97;3.67;;;27.10;84.00;;;;;;5069683;28;20445;-69
2022/07/31 05:48:13;;;;;;;3.47;3.27;;;27.00;85.30;;;;;;5065516;28;20464;-69
2022/07/31 05:50:46;;;;;;;3.50;3.30;;;26.80;88.10;;;;;;5068091;28;20493;-69
2022/07/31 05:53:17;;;;;;;3.90;3.60;;;26.70;88.80;;;;;;5073386;28;20838;-69
2022/07/31 05:55:50;;;;;;;4.30;3.90;;;26.60;90.50;;;;;;5071303;28;20460;-70
2022/07/31 05:58:21;;;;;;;3.60;3.30;;;26.50;91.10;;;;;;5063673;28;20617;-69
2022/07/31 06:00:52;;;;;;;5.03;4.63;;;26.50;91.90;;;;;;5060189;28;20467;-70
2022/07/31 06:03:26;;;;;;;4.20;3.90;;;26.40;91.80;;;;;;5054548;28;20449;-69
2022/07/31 06:05:58;;;;;;;3.53;3.30;;;26.20;91.40;;;;;;5061118;28;21034;-68
2022/07/31 06:08:29;;;;;;;4.00;3.77;;;26.30;90.00;;;;;;5063552;28;20459;-67
2022/07/31 06:11:01;;;;;;;4.10;3.80;;;26.20;88.70;;;;;;5069597;28;20490;-68
2022/07/31 06:13:31;;;;;;;4.20;3.90;;;26.30;88.90;;;;;;5083343;28;21025;-68
2022/07/31 06:16:02;;;;;;;4.47;4.07;;;26.30;88.80;;;;;;5068500;28;20988;-67
2022/07/31 06:18:33;;;;;;;4.63;4.23;;;26.30;90.50;;;;;;5062301;28;20478;-68
2022/07/31 06:21:05;;;;;;;4.93;4.53;;;26.20;91.60;;;;;;5062446;28;20651;-67
2022/07/31 06:23:36;;;;;;;3.90;3.60;;;26.10;92.40;;;;;;5082445;28;20513;-68
2022/07/31 06:26:07;;;;;;;4.17;3.87;;;26.00;93.00;;;;;;5074301;28;20607;-68
2022/07/31 06:28:38;;;;;;;4.63;4.23;;;25.90;93.80;;;;;;5063166;28;20456;-68
2022/07/31 06:31:19;;;;;;;4.13;3.83;;;25.80;93.60;;;;;;5065547;28;20442;-68
2022/07/31 06:33:50;;;;;;;4.17;3.87;;;25.70;94.50;;;;;;5063600;28;20494;-68
2022/07/31 06:36:23;;;;;;;4.70;4.40;;;25.60;94.80;;;;;;5070120;28;20446;-68
2022/07/31 06:38:54;;;;;;;4.57;4.17;;;25.60;95.50;;;;;;5082477;28;20469;-68
2022/07/31 06:44:12;;;;;;;4.47;4.07;;;25.30;96.40;;;;;;5062651;28;20464;-68
2022/07/31 06:46:43;;;;;;;3.87;3.57;;;25.20;96.70;;;;;;5073405;28;20542;-68
2022/07/31 06:49:18;;;;;;;3.97;3.67;;;25.20;96.50;;;;;;5082624;28;20435;-67
2022/07/31 06:51:50;;;;;;;4.00;3.70;;;25.10;95.90;;;;;;5061436;28;20457;-68
2022/07/31 06:54:21;;;;;;;3.97;3.37;;;25.00;97.30;;;;;;5069353;28;20984;-68
2022/07/31 06:56:56;;;;;;;3.80;3.50;;;25.00;97.40;;;;;;5076562;28;20968;-68
2022/07/31 06:59:26;;;;;;;3.53;3.23;;;24.80;96.80;;;;;;5077109;28;20458;-68
2022/07/31 07:02:09;;;;;;;3.97;3.60;;;24.80;97.80;;;;;;5060762;28;20472;-68
2022/07/31 07:04:40;;;;;;;3.57;3.27;;;24.80;98.40;;;;;;5055641;28;20462;-68
2022/07/31 07:07:35;;;;;;;3.50;3.20;;;24.80;98.40;;;;;;5076908;28;20457;-68
2022/07/31 07:10:06;;;;;;;4.40;3.93;;;24.80;97.90;;;;;;5060064;28;20460;-68
2022/07/31 07:12:37;;;;;;;4.53;3.50;;;24.90;98.10;;;;;;5062223;28;20452;-68
2022/07/31 07:15:09;;;;;;;3.97;3.67;;;24.90;98.30;;;;;;5061813;28;20499;-68
2022/07/31 07:17:40;;;;;;;3.47;3.23;;;24.80;98.40;;;;;;5059901;28;20500;-68
2022/07/31 07:20:12;;;;;;;3.90;3.57;;;24.70;98.10;;;;;;5060068;28;20462;-67
2022/07/31 07:22:44;;;;;;;4.10;3.80;;;24.60;99.70;;;;;;5060814;28;20453;-67
2022/07/31 07:25:15;;;;;;;4.30;3.90;;;24.50;99.90;;;;;;5061218;28;20471;-68
2022/07/31 07:27:46;;;;;;;3.57;3.23;;;24.50;99.90;;;;;;5061099;28;20470;-67
2022/07/31 07:30:17;;;;;;;3.97;3.67;;;24.40;99.90;;;;;;5062224;28;20472;-68
2022/07/31 07:32:47;;;;;;;3.63;3.33;;;24.40;99.90;;;;;;5061313;28;20457;-67
2022/07/31 07:35:18;;;;;;;3.87;3.53;;;24.40;99.90;;;;;;5062223;28;20571;-67
2022/07/31 07:37:51;;;;;;;3.60;3.30;;;24.30;99.90;;;;;;5053018;28;20497;-67
2022/07/31 07:40:22;;;;;;;4.07;3.77;;;24.30;99.90;;;;;;5062248;28;20472;-68
2022/07/31 07:42:53;;;;;;;4.10;3.80;;;24.30;99.90;;;;;;5068027;28;20471;-67
2022/07/31 07:45:27;;;;;;;3.87;3.57;;;24.30;99.90;;;;;;5062076;28;20524;-68
2022/07/31 07:47:58;;;;;;;3.23;3.03;;;24.30;99.90;;;;;;5064054;28;20464;-68
2022/07/31 07:50:36;;;;;;;4.50;4.10;;;24.20;99.90;;;;;;5061982;28;20955;-68
2022/07/31 07:53:08;;;;;;;4.30;4.00;;;24.20;99.90;;;;;;5061300;28;20465;-68
2022/07/31 07:55:39;;;;;;;3.70;3.40;;;24.10;99.90;;;;;;5064924;28;20829;-67
2022/07/31 07:58:10;;;;;;;4.10;3.70;;;24.00;99.90;;;;;;5078431;28;20505;-68
2022/07/31 08:00:41;;;;;;;4.30;3.90;;;24.00;99.90;;;;;;5078710;28;20911;-68
2022/07/31 08:03:12;;;;;;;4.80;4.20;;;24.00;99.90;;;;;;5071815;28;21366;-68
2022/07/31 08:06:02;;;;;;;3.87;3.47;;;24.00;99.90;;;;;;5060914;28;20448;-67
2022/07/31 08:08:35;;;;;;;4.03;3.73;;;23.90;99.90;;;;;;5057357;28;20451;-67
2022/07/31 08:11:05;;;;;;;4.50;4.10;;;23.80;99.90;;;;;;5073263;28;20455;-68
2022/07/31 08:13:36;;;;;;;4.50;4.20;;;23.80;99.90;;;;;;5067814;28;20467;-68
2022/07/31 08:16:09;;;;;;;3.60;3.30;;;23.80;99.90;;;;;;5065744;28;20463;-68
2022/07/31 08:18:40;;;;;;;3.87;3.60;;;23.80;99.90;;;;;;5071434;28;20487;-68
2022/07/31 08:21:11;;;;;;;3.93;3.53;;;23.80;99.90;;;;;;5073469;28;20452;-68
2022/07/31 08:23:43;;;;;;;4.33;4.00;;;23.70;99.90;;;;;;5079228;28;20455;-67
2022/07/31 08:26:16;;;;;;;3.97;3.67;;;23.60;99.90;;;;;;5078231;28;20450;-68
2022/07/31 08:28:47;;;;;;;4.37;3.97;;;23.60;99.90;;;;;;5065305;28;20495;-68
2022/07/31 08:31:20;;;;;;;3.90;3.60;;;23.60;99.90;;;;;;5064839;28;20498;-67
2022/07/31 08:33:51;;;;;;;3.77;3.47;;;23.50;99.90;;;;;;5079531;28;20447;-68
2022/07/31 08:36:23;;;;;;;3.90;3.60;;;23.40;99.90;;;;;;5065945;28;20444;-67
2022/07/31 08:38:56;;;;;;;4.50;4.10;;;23.40;99.90;;;;;;5076682;28;20559;-67
2022/07/31 08:41:27;;;;;;;4.37;4.00;;;23.30;99.90;;;;;;5072606;28;20464;-67
2022/07/31 08:43:57;;;;;;;4.67;4.00;;;23.30;99.90;;;;;;5079444;28;20455;-67
2022/07/31 08:46:36;;;;;;;3.73;3.47;;;23.20;99.90;;;;;;5072613;28;20843;-67
2022/07/31 08:49:09;;;;;;;4.40;4.00;;;23.20;99.90;;;;;;5073688;28;20456;-68
2022/07/31 08:51:43;;;;;;;4.03;3.67;;;23.10;99.90;;;;;;5064706;28;20448;-68
2022/07/31 08:54:25;;;;;;;3.90;3.60;;;23.10;99.90;;;;;;5065407;28;20554;-67
2022/07/31 08:56:55;;;;;;;4.53;4.13;;;23.00;99.90;;;;;;5064018;28;20481;-67
2022/07/31 08:59:26;;;;;;;4.63;3.93;;;22.90;99.90;;;;;;5073147;28;21137;-68
2022/07/31 09:01:58;;;;;;;3.80;3.50;;;23.00;99.90;;;;;;5066791;28;20460;-66
2022/07/31 09:04:30;;;;;;;5.00;4.40;;;22.90;99.90;;;;;;5084717;28;20481;-66
2022/07/31 09:07:01;;;;;;;4.43;4.03;;;22.90;99.90;;;;;;5065649;28;20448;-67
2022/07/31 09:09:34;;;;;;;4.07;3.77;;;22.80;99.90;;;;;;5081857;28;20829;-66
2022/07/31 09:12:29;;;;;;;4.10;3.70;;;22.70;99.90;;;;;;5065250;28;20432;-66
2022/07/31 09:15:02;;;;;;;3.50;3.20;;;22.60;99.90;;;;;;5064355;28;20448;-66
2022/07/31 09:17:35;;;;;;;3.90;3.43;;;22.60;99.90;;;;;;5065249;28;20440;-65
2022/07/31 09:20:17;;;;;;;4.77;4.30;;;22.60;99.90;;;;;;5064185;28;20491;-67
2022/07/31 09:22:48;;;;;;;3.73;3.43;;;22.50;99.90;;;;;;5051174;28;20550;-66
2022/07/31 09:25:20;;;;;;;4.03;3.70;;;22.50;99.90;;;;;;5064170;28;20831;-67
2022/07/31 09:28:01;;;;;;;4.57;4.17;;;22.50;99.90;;;;;;5064445;28;20462;-67
2022/07/31 09:30:33;;;;;;;4.30;3.90;;;22.40;99.90;;;;;;5064025;28;20436;-66
2022/07/31 09:33:24;;;;;;;3.83;3.53;;;22.40;99.90;;;;;;5064435;28;20801;-67
2022/07/31 09:35:55;;;;;;;3.70;3.40;;;22.30;99.90;;;;;;5063440;28;21226;-66
2022/07/31 09:38:32;;;;;;;3.70;3.40;;;22.30;99.90;;;;;;5065600;28;20457;-67
2022/07/31 09:41:15;;;;;;;4.43;4.03;;;22.20;99.90;;;;;;5068993;28;20447;-67
2022/07/31 09:44:06;;;;;;;4.00;3.63;;;22.20;99.90;;;;;;5058342;28;20436;-66
2022/07/31 09:46:43;;;;;;;4.10;3.57;;;22.20;99.90;;;;;;5063764;28;20445;-66
2022/07/31 09:49:14;;;;;;;4.00;3.70;;;22.10;99.90;;;;;;5064036;28;20436;-66
2022/07/31 09:51:47;;;;;;;4.33;3.93;;;22.10;99.90;;;;;;5062396;28;20815;-66
2022/07/31 09:54:22;;;;;;;4.20;3.83;;;22.00;99.90;;;;;;5065139;28;20455;-66
2022/07/31 09:56:55;;;;;;;4.03;3.63;;;22.00;99.90;;;;;;5074271;28;20480;-66
2022/07/31 09:59:26;;;;;;;4.13;3.80;;;22.00;99.90;;;;;;5063578;28;20458;-67
2022/07/31 10:01:57;;;;;;;3.60;3.30;;;21.90;99.90;;;;;;5062990;28;20459;-67
2022/07/31 10:04:29;;;;;;;4.93;4.20;;;21.90;99.90;;;;;;5064512;28;20457;-66
2022/07/31 10:07:00;;;;;;;4.77;4.37;;;21.90;99.90;;;;;;5068214;28;20458;-66
2022/07/31 10:09:33;;;;;;;4.23;3.83;;;21.80;99.90;;;;;;5081668;28;20502;-66
2022/07/31 10:12:07;;;;;;;4.07;3.77;;;21.80;99.90;;;;;;5076808;28;20459;-66
2022/07/31 10:14:45;;;;;;;4.57;4.17;;;21.70;99.90;;;;;;5067213;28;20449;-66
2022/07/31 10:17:24;;;;;;;4.53;4.20;;;21.60;99.90;;;;;;5059183;28;20469;-67
2022/07/31 10:19:58;;;;;;;4.00;3.70;;;21.60;99.90;;;;;;5056892;28;20487;-67
2022/07/31 10:22:30;;;;;;;4.90;4.50;;;21.60;99.90;;;;;;5073550;28;20555;-66
2022/07/31 10:25:03;;;;;;;4.30;3.90;;;21.60;99.90;;;;;;5081292;28;20455;-66
2022/07/31 10:27:37;;;;;;;4.00;3.70;;;21.60;99.90;;;;;;5082699;28;20451;-66
2022/07/31 10:30:09;;;;;;;4.80;4.40;;;21.50;99.90;;;;;;5080143;28;20450;-66
2022/07/31 10:32:40;;;;;;;4.47;4.10;;;21.50;99.90;;;;;;5063107;28;20430;-66
2022/07/31 10:35:12;;;;;;;4.63;4.20;;;21.50;99.90;;;;;;5073423;28;20443;-67
2022/07/31 10:37:54;;;;;;;4.87;4.47;;;21.50;99.90;;;;;;5081971;28;20448;-66
2022/07/31 10:40:34;;;;;;;4.93;4.37;;;21.50;99.90;;;;;;5081133;28;20490;-66
2022/07/31 10:43:20;;;;;;;4.63;4.13;;;21.40;99.90;;;;;;5068053;28;20921;-66
2022/07/31 10:45:52;;;;;;;4.73;4.20;;;21.30;99.90;;;;;;5062752;28;20480;-66
2022/07/31 10:48:23;;;;;;;4.57;3.37;;;21.30;99.90;;;;;;5069343;28;20456;-66
2022/07/31 10:51:03;;;;;;;3.80;3.50;;;21.20;99.90;;;;;;5070306;28;20475;-66
2022/07/31 10:53:34;;;;;;;4.47;3.90;;;21.20;99.90;;;;;;5062706;28;20444;-66
2022/07/31 10:56:24;;;;;;;4.30;3.93;;;21.20;99.90;;;;;;5049078;28;20887;-66
2022/07/31 10:58:58;;;;;;;3.90;3.60;;;21.10;99.90;;;;;;5062144;28;20925;-66
2022/07/31 11:01:29;;;;;;;4.13;3.73;;;21.20;99.90;;;;;;5061137;28;20480;-66
2022/07/31 11:04:03;;;;;;;4.27;3.50;;;21.20;99.90;;;;;;5064148;28;20559;-66
2022/07/31 11:06:41;;;;;;;4.53;4.13;;;21.20;99.90;;;;;;5061481;28;20456;-66
2022/07/31 11:09:22;;;;;;;3.87;3.57;;;21.10;99.90;;;;;;5059817;28;20459;-66
2022/07/31 11:11:53;;;;;;;4.50;4.10;;;21.00;99.90;;;;;;5081660;28;20418;-66
2022/07/31 11:14:37;;;;;;;4.23;3.80;;;21.00;99.90;;;;;;5053513;28;20471;-66
2022/07/31 11:17:08;;;;;;;4.27;3.87;;;21.00;99.90;;;;;;5051648;28;20474;-66
2022/07/31 11:19:40;;;;;;;4.23;3.80;;;21.10;99.90;;;;;;5079482;28;20475;-66
2022/07/31 11:22:11;;;;;;;4.67;4.23;;;21.00;99.90;;;;;;5058147;28;20789;-66
2022/07/31 11:25:01;;;;;;;3.73;3.43;;;20.90;99.90;;;;;;5080151;28;20464;-66
2022/07/31 11:27:32;;;;;;;4.23;3.83;;;20.80;99.90;;;;;;5065687;28;20551;-66
2022/07/31 11:30:09;;;;;;;4.07;3.67;;;20.80;99.90;;;;;;5064450;28;20484;-67
2022/07/31 11:32:47;;;;;;;6.67;5.00;;;20.90;99.90;;;;;;5056740;28;20759;-66
2022/07/31 11:35:29;;;;;;;6.20;4.10;;;20.80;99.90;;;;;;5059708;28;20800;-66
2022/07/31 11:38:00;;;;;;;3.63;3.33;;;20.80;99.90;;;;;;5053233;28;20824;-66
2022/07/31 11:40:30;;;;;;;4.23;3.90;;;20.80;99.90;;;;;;5059969;28;20495;-66
2022/07/31 11:43:01;;;;;;;4.13;3.77;;;20.80;99.90;;;;;;5058212;28;20548;-66
2022/07/31 11:45:56;;;;;;;4.10;3.70;;;20.70;99.90;;;;;;5080235;28;20444;-66
2022/07/31 11:48:30;;;;;;;4.20;3.80;;;20.70;99.90;;;;;;5081845;28;20446;-67
2022/07/31 11:51:08;;;;;;;5.27;3.40;;;20.70;99.90;;;;;;5081004;28;20422;-66
2022/07/31 11:53:42;;;;;;;4.47;4.07;;;20.60;99.90;;;;;;5070112;28;20456;-66
2022/07/31 11:56:16;;;;;;;4.47;4.07;;;20.60;99.90;;;;;;5074922;28;20458;-66
2022/07/31 11:58:49;;;;;;;4.00;3.67;;;20.60;99.90;;;;;;5071618;28;20477;-65
2022/07/31 12:01:26;;;;;;;4.47;4.07;;;20.60;99.90;;;;;;5065201;28;20492;-66
2022/07/31 12:03:58;;;;;;;4.10;3.80;;;20.50;99.90;;;;;;5065352;28;20447;-67
2022/07/31 12:06:38;;;;;;;3.70;3.40;;;20.50;99.90;;;;;;5064743;28;20430;-67
2022/07/31 12:09:09;;;;;;;3.83;3.53;;;20.40;99.90;;;;;;5070964;28;20439;-66
2022/07/31 12:12:00;;;;;;;3.80;3.50;;;20.40;99.90;;;;;;5073450;28;20505;-66
2022/07/31 12:14:34;;;;;;;3.47;3.17;;;20.40;99.90;;;;;;5062004;28;20452;-66
2022/07/31 12:17:08;;;;;;;4.03;3.70;;;20.40;99.90;;;;;;5049185;28;20805;-66
2022/07/31 12:19:43;;;;;;;4.40;3.80;;;20.30;99.90;;;;;;5065762;28;20467;-67
2022/07/31 12:22:15;;;;;;;3.43;3.13;;;20.20;99.90;;;;;;5063646;28;20456;-66
2022/07/31 12:24:46;;;;;;;4.60;4.20;;;20.20;99.90;;;;;;5071626;28;20484;-66
2022/07/31 12:27:18;;;;;;;4.87;3.90;;;20.30;99.90;;;;;;5075777;28;20411;-67
2022/07/31 12:29:48;;;;;;;4.50;3.50;;;20.30;99.90;;;;;;5065395;28;20457;-66
2022/07/31 12:32:28;;;;;;;4.07;3.77;;;20.20;99.90;;;;;;5064435;28;20437;-67
2022/07/31 12:35:05;;;;;;;3.53;3.23;;;20.20;99.90;;;;;;5052226;28;20418;-64
2022/07/31 12:37:45;;;;;;;4.40;4.00;;;20.20;99.90;;;;;;5080659;28;20454;-64
2022/07/31 12:40:26;;;;;;;3.60;3.27;;;20.20;99.90;;;;;;5050399;28;20458;-65
2022/07/31 12:42:58;;;;;;;4.53;4.13;;;20.20;99.90;;;;;;5068362;28;20459;-64
2022/07/31 12:45:34;;;;;;;4.70;4.30;;;20.20;99.90;;;;;;5065150;28;20470;-67
2022/07/31 12:48:07;;;;;;;3.40;3.13;;;20.30;99.90;;;;;;5063687;28;20430;-66
2022/07/31 12:50:38;;;;;;;6.20;3.63;;;20.30;99.90;;;;;;5076441;28;20471;-66
2022/07/31 12:53:08;;;;;;;4.57;4.17;;;20.30;99.90;;;;;;5075592;28;20419;-67
2022/07/31 12:55:39;;;;;;;3.93;3.63;;;20.30;99.90;;;;;;5064286;28;20484;-67
2022/07/31 12:58:10;;;;;;;4.07;3.73;;;20.30;99.90;;;;;;5073437;28;20448;-66
2022/07/31 13:00:41;;;;;;;4.30;3.90;;;20.30;99.90;;;;;;5071587;28;20491;-66
2022/07/31 13:03:13;;;;;;;4.10;3.70;;;20.20;99.90;;;;;;5076070;28;20435;-66
2022/07/31 13:05:44;;;;;;;5.93;4.27;;;20.10;99.90;;;;;;5072188;28;20449;-67
2022/07/31 13:08:20;;;;;;;3.20;2.90;;;20.10;99.90;;;;;;5084379;28;20865;-66
2022/07/31 13:10:51;;;;;;;4.27;3.77;;;20.10;99.90;;;;;;5083469;28;20462;-67
2022/07/31 13:13:22;;;;;;;3.97;3.67;;;20.00;99.90;;;;;;5080003;28;20414;-66
2022/07/31 13:15:53;;;;;;;3.67;3.37;;;20.00;99.90;;;;;;5083915;28;20933;-65
2022/07/31 13:18:25;;;;;;;3.70;3.40;;;20.00;99.90;;;;;;5064382;28;20536;-66
2022/07/31 13:20:56;;;;;;;4.13;3.83;;;20.00;99.90;;;;;;5062595;28;20525;-66
2022/07/31 13:23:27;;;;;;;3.83;3.53;;;20.00;99.90;;;;;;5064191;28;20810;-66